sim
Sign-in with your pilot id or email,
or register
Callsign
Passwort

Schedule Details

Flight Number: DLH2465
Departure: Helsinki Vantaa Airport (EFHK) at 17:45
Arrival: Munich Airport (EDDM) at 20:25
Route: Lufthansa Passenger Schedule. Enter filed route here before submitting Pirep.

Weather Information
Getting current METAR information for EFHK 190450Z 28010KT CAVOK 07/05 Q1017 NOSIG
Getting current METAR information for EDDM 190450Z 32001KT CAVOK 04/03 Q1020 NOSIG

Schedule Frequency

Route Map